TimeCST,TemperatureF,Dew PointF,Humidity,Sea Level PressureIn,VisibilityMPH,Wind Direction,Wind SpeedMPH,Gust SpeedMPH,PrecipitationIn,Events,Conditions,WindDirDegrees,DateUTC
12:15 AM,27.5,18.5,69,30.20,10.0,East,9.2,-,N/A,,Clear,100,2012-02-26 06:15:00
12:35 AM,27.1,18.5,70,30.20,10.0,East,8.1,-,N/A,,Clear,100,2012-02-26 06:35:00
12:55 AM,26.6,19.4,74,30.19,10.0,East,9.2,-,N/A,,Clear,100,2012-02-26 06:55:00
1:15 AM,27.3,18.5,69,30.19,10.0,East,9.2,-,N/A,,Clear,100,2012-02-26 07:15:00
1:35 AM,27.1,18.7,70,30.19,10.0,East,9.2,-,N/A,,Clear,100,2012-02-26 07:35:00
1:55 AM,27.1,18.7,70,30.18,10.0,ESE,8.1,-,N/A,,Clear,110,2012-02-26 07:55:00
2:15 AM,27.5,18.9,70,30.18,10.0,ESE,8.1,-,N/A,,Clear,110,2012-02-26 08:15:00
2:35 AM,28.4,19.4,69,30.16,10.0,ESE,9.2,-,N/A,,Clear,110,2012-02-26 08:35:00
2:55 AM,28.9,19.0,67,30.15,10.0,ESE,11.5,-,N/A,,Clear,110,2012-02-26 08:55:00
3:35 AM,29.7,19.2,65,30.13,10.0,ESE,9.2,-,N/A,,Clear,120,2012-02-26 09:35:00
3:55 AM,30.2,19.0,63,30.12,10.0,ESE,13.8,17.3,N/A,,Clear,120,2012-02-26 09:55:00
4:15 AM,31.3,18.9,60,30.11,10.0,ESE,11.5,20.7,N/A,,Clear,120,2012-02-26 10:15:00
4:35 AM,31.8,18.9,59,30.12,10.0,SE,11.5,20.7,N/A,,Clear,130,2012-02-26 10:35:00
4:55 AM,31.8,19.4,60,30.11,10.0,ESE,11.5,20.7,N/A,,Clear,120,2012-02-26 10:55:00
5:15 AM,31.6,19.4,61,30.10,10.0,SE,12.7,23.0,N/A,,Clear,130,2012-02-26 11:15:00
5:35 AM,31.6,19.8,62,30.09,10.0,SE,15.0,23.0,N/A,,Clear,130,2012-02-26 11:35:00
5:55 AM,32.0,19.4,60,30.08,10.0,SE,13.8,20.7,N/A,,Clear,130,2012-02-26 11:55:00
6:15 AM,31.3,19.9,63,30.07,10.0,SE,11.5,19.6,N/A,,Clear,130,2012-02-26 12:15:00
6:35 AM,31.3,20.3,64,30.06,10.0,SE,12.7,19.6,N/A,,Clear,130,2012-02-26 12:35:00
6:55 AM,32.0,20.3,62,30.05,10.0,SE,12.7,19.6,N/A,,Clear,130,2012-02-26 12:55:00
7:15 AM,32.0,21.2,64,30.03,10.0,SE,15.0,21.9,N/A,,Mostly Cloudy,140,2012-02-26 13:15:00
7:35 AM,33.6,21.4,61,30.03,10.0,SE,15.0,24.2,N/A,,Overcast,140,2012-02-26 13:35:00
7:55 AM,34.7,21.7,59,30.03,10.0,SE,17.3,24.2,N/A,,Scattered Clouds,140,2012-02-26 13:55:00
8:15 AM,35.6,22.1,58,30.02,10.0,SSE,18.4,24.2,N/A,,Clear,150,2012-02-26 14:15:00
8:35 AM,36.5,22.6,57,30.02,10.0,SSE,18.4,25.3,N/A,,Clear,150,2012-02-26 14:35:00
8:55 AM,39.2,23.0,52,30.01,10.0,SSE,18.4,26.5,N/A,,Clear,150,2012-02-26 14:55:00
9:15 AM,40.1,23.0,51,30.01,10.0,SSE,23.0,33.4,N/A,,Clear,150,2012-02-26 15:15:00
9:35 AM,41.5,23.9,50,30.00,10.0,SSE,18.4,26.5,N/A,,Clear,150,2012-02-26 15:35:00
9:55 AM,44.2,23.5,44,30.00,10.0,SSE,18.4,27.6,N/A,,Clear,160,2012-02-26 15:55:00
10:15 AM,45.7,23.7,42,29.99,10.0,SSE,20.7,29.9,N/A,,Clear,160,2012-02-26 16:15:00
10:35 AM,46.9,24.6,42,29.99,10.0,SSE,21.9,29.9,N/A,,Clear,160,2012-02-26 16:35:00
10:55 AM,48.6,24.8,39,29.98,10.0,South,23.0,33.4,N/A,,Clear,170,2012-02-26 16:55:00
11:15 AM,49.3,24.4,38,29.97,10.0,South,25.3,32.2,N/A,,Clear,170,2012-02-26 17:15:00
11:35 AM,50.4,24.8,37,29.97,10.0,South,23.0,32.2,N/A,,Clear,180,2012-02-26 17:35:00
11:55 AM,51.8,25.7,36,29.96,10.0,South,21.9,32.2,N/A,,Clear,170,2012-02-26 17:55:00
12:15 PM,53.6,26.1,35,29.96,10.0,South,23.0,31.1,N/A,,Clear,170,2012-02-26 18:15:00
12:35 PM,55.0,26.1,33,29.96,10.0,South,23.0,34.5,N/A,,Clear,190,2012-02-26 18:35:00
12:55 PM,55.8,26.4,32,29.96,10.0,South,29.9,35.7,N/A,,Clear,190,2012-02-26 18:55:00
1:15 PM,56.3,26.8,32,29.95,10.0,South,25.3,35.7,N/A,,Clear,190,2012-02-26 19:15:00
1:35 PM,57.2,28.2,33,29.94,10.0,South,21.9,32.2,N/A,,Clear,190,2012-02-26 19:35:00
1:55 PM,58.6,27.7,31,29.93,10.0,South,21.9,29.9,N/A,,Clear,190,2012-02-26 19:55:00
2:15 PM,59.0,27.5,30,29.93,10.0,South,21.9,32.2,N/A,,Clear,190,2012-02-26 20:15:00
2:35 PM,59.9,24.8,26,29.93,10.0,SSW,23.0,26.5,N/A,,Clear,200,2012-02-26 20:35:00
2:55 PM,59.9,25.7,27,29.93,10.0,SSW,23.0,27.6,N/A,,Clear,200,2012-02-26 20:55:00
3:15 PM,59.9,27.3,29,29.93,10.0,SSW,19.6,25.3,N/A,,Clear,200,2012-02-26 21:15:00
3:35 PM,59.9,27.5,29,29.93,10.0,SSW,17.3,25.3,N/A,,Clear,200,2012-02-26 21:35:00
3:55 PM,60.4,25.5,26,29.93,10.0,SSW,16.1,21.9,N/A,,Clear,200,2012-02-26 21:55:00
4:15 PM,59.9,25.9,27,29.94,10.0,SSW,16.1,20.7,N/A,,Clear,200,2012-02-26 22:15:00
4:35 PM,59.4,28.4,31,29.94,10.0,SSW,10.4,-,N/A,,Clear,210,2012-02-26 22:35:00
4:55 PM,58.1,28.8,33,29.95,10.0,SW,10.4,-,N/A,,Clear,220,2012-02-26 22:55:00
5:15 PM,57.2,29.1,34,29.95,10.0,SW,10.4,-,N/A,,Clear,220,2012-02-26 23:15:00
5:35 PM,55.4,29.1,37,29.96,10.0,SSW,10.4,-,N/A,,Clear,210,2012-02-26 23:35:00
5:55 PM,54.0,29.3,39,29.97,10.0,SW,8.1,-,N/A,,Clear,220,2012-02-26 23:55:00
6:15 PM,53.2,28.8,39,29.98,10.0,SW,9.2,-,N/A,,Clear,220,2012-02-27 00:15:00
6:35 PM,53.6,27.3,36,29.99,10.0,SSW,10.4,-,N/A,,Clear,210,2012-02-27 00:35:00
6:55 PM,52.7,27.5,38,29.99,10.0,SSW,11.5,-,N/A,,Clear,210,2012-02-27 00:55:00
7:15 PM,49.6,28.9,45,29.99,10.0,SSW,8.1,-,N/A,,Clear,210,2012-02-27 01:15:00
7:35 PM,50.0,28.9,44,30.01,10.0,West,11.5,17.3,N/A,,Clear,260,2012-02-27 01:35:00
7:55 PM,46.9,30.7,53,30.02,10.0,West,9.2,-,N/A,,Clear,280,2012-02-27 01:55:00
8:15 PM,44.8,30.6,57,30.03,10.0,West,5.8,-,N/A,,Clear,260,2012-02-27 02:15:00
8:35 PM,41.9,30.4,64,30.04,10.0,West,4.6,-,N/A,,Clear,270,2012-02-27 02:35:00
8:55 PM,41.7,30.7,65,30.06,10.0,NW,11.5,-,N/A,,Clear,310,2012-02-27 02:55:00
9:15 PM,43.2,29.1,58,30.07,10.0,NW,11.5,-,N/A,,Clear,310,2012-02-27 03:15:00
9:35 PM,41.9,27.3,56,30.08,10.0,NW,8.1,-,N/A,,Clear,320,2012-02-27 03:35:00
9:55 PM,37.6,27.9,68,30.09,10.0,Calm,Calm,-,N/A,,Clear,0,2012-02-27 03:55:00
10:15 PM,38.5,27.5,65,30.10,10.0,NW,3.5,-,N/A,,Clear,320,2012-02-27 04:15:00
10:35 PM,38.7,26.1,61,30.10,10.0,WNW,3.5,-,N/A,,Clear,290,2012-02-27 04:35:00
10:55 PM,37.4,25.7,63,30.11,10.0,NW,5.8,-,N/A,,Clear,310,2012-02-27 04:55:00
11:15 PM,36.9,26.1,65,30.12,10.0,NW,3.5,-,N/A,,Clear,320,2012-02-27 05:15:00
11:35 PM,37.0,26.1,65,30.13,10.0,NW,4.6,-,N/A,,Clear,320,2012-02-27 05:35:00
11:55 PM,35.4,26.1,69,30.13,10.0,Calm,Calm,-,N/A,,Clear,0,2012-02-27 05:55:00